Time;durP1;ratioP1;P1;durP2;ratioP2;P2;SDS_P1;SDS_P2;PMS_P1;PMS_P2;Temp;Humidity;BMP_temperature;BMP_pressure;BME280_temperature;BME280_humidity;BME280_pressure;Samples;Min_cycle;Max_cycle;Signal;HPM_P1;HPM_P2
2022/10/31 00:01:27;;;;;;;40.83;22.33;;;;;;;15.83;55.79;102003.84;7392567;19;20025;-60
2022/10/31 00:03:53;;;;;;;43.88;21.15;;;;;;;15.77;56.31;102001.69;7390734;19;20013;-60
2022/10/31 00:06:24;;;;;;;39.15;21.10;;;;;;;15.76;56.31;102000.88;7392669;19;20006;-60
2022/10/31 00:08:58;;;;;;;41.83;22.13;;;;;;;15.75;56.10;102010.28;7388169;19;20019;-60
2022/10/31 00:11:24;;;;;;;36.63;21.73;;;;;;;15.73;56.16;101998.81;7393277;19;20003;-60
2022/10/31 00:13:50;;;;;;;36.92;21.30;;;;;;;15.75;56.19;102004.78;7390211;19;20026;-60
2022/10/31 00:16:18;;;;;;;37.58;21.15;;;;;;;15.71;56.39;102012.94;7392635;19;19999;-60
2022/10/31 00:18:48;;;;;;;36.92;21.33;;;;;;;15.68;56.39;102021.06;7389374;19;20358;-61
2022/10/31 00:21:14;;;;;;;39.80;20.60;;;;;;;15.72;56.08;102022.78;7390128;19;20488;-60
2022/10/31 00:23:40;;;;;;;38.33;22.25;;;;;;;15.71;56.22;102036.88;7388628;19;20010;-58
2022/10/31 00:26:06;;;;;;;38.08;22.13;;;;;;;15.70;56.42;102036.09;7390525;19;20001;-60
2022/10/31 00:28:32;;;;;;;39.60;19.67;;;;;;;15.67;56.31;102036.78;7388497;19;20471;-58
2022/10/31 00:31:03;;;;;;;39.28;21.77;;;;;;;15.62;56.42;102034.25;7390735;19;20017;-59
2022/10/31 00:33:29;;;;;;;40.38;20.63;;;;;;;15.65;56.15;102041.03;7391587;19;19998;-60
2022/10/31 00:35:54;;;;;;;36.33;21.23;;;;;;;15.64;56.24;102042.19;7390961;19;20486;-61
2022/10/31 00:38:21;;;;;;;38.65;21.13;;;;;;;15.60;56.35;102039.28;7389639;19;20002;-64
2022/10/31 00:40:46;;;;;;;38.92;20.08;;;;;;;15.58;56.51;102038.03;7391262;19;19999;-68
2022/10/31 00:43:12;;;;;;;39.17;22.17;;;;;;;15.53;56.40;102039.88;7390002;19;20036;-64
2022/10/31 00:45:37;;;;;;;34.70;20.10;;;;;;;15.59;56.14;102050.66;7387109;19;20018;-63
2022/10/31 00:48:04;;;;;;;39.58;20.83;;;;;;;15.49;56.43;102052.69;7387627;19;19998;-63
2022/10/31 00:50:30;;;;;;;33.53;20.48;;;;;;;15.51;56.55;102050.44;7390408;19;20546;-63
2022/10/31 00:52:56;;;;;;;33.08;19.80;;;;;;;15.43;56.73;102059.59;7391253;19;20002;-64
2022/10/31 00:55:22;;;;;;;43.45;20.70;;;;;;;15.44;56.60;102055.69;7390829;19;20010;-64
2022/10/31 00:57:47;;;;;;;39.58;20.58;;;;;;;15.47;56.37;102070.72;7391059;19;20022;-65
2022/10/31 01:00:14;;;;;;;33.47;19.98;;;;;;;15.48;56.65;102067.63;7387855;19;20364;-65
2022/10/31 01:02:39;;;;;;;37.60;20.05;;;;;;;15.43;56.58;102065.09;7390797;19;20011;-65
2022/10/31 01:05:05;;;;;;;33.95;19.00;;;;;;;15.41;56.56;102067.38;7390436;19;20005;-66
2022/10/31 01:07:31;;;;;;;35.70;19.60;;;;;;;15.45;56.60;102070.28;7389686;19;20009;-66
2022/10/31 01:09:56;;;;;;;37.05;21.02;;;;;;;15.46;56.46;102064.38;7387943;19;20003;-65
2022/10/31 01:12:22;;;;;;;40.53;22.17;;;;;;;15.42;56.57;102066.25;7389969;19;20534;-64
2022/10/31 01:14:48;;;;;;;36.22;21.25;;;;;;;15.45;56.62;102073.81;7397639;19;20009;-64
2022/10/31 01:17:14;;;;;;;41.30;22.13;;;;;;;15.43;56.58;102069.78;7400101;19;20478;-65
2022/10/31 01:19:39;;;;;;;38.00;21.08;;;;;;;15.40;56.54;102082.28;7396974;19;20165;-64
2022/10/31 01:22:05;;;;;;;37.05;21.05;;;;;;;15.44;56.70;102088.69;7396049;19;20072;-64
2022/10/31 01:24:31;;;;;;;38.90;21.02;;;;;;;15.44;56.41;102093.41;7395262;19;20006;-65
2022/10/31 01:26:57;;;;;;;37.65;19.98;;;;;;;15.38;56.86;102089.28;7398428;19;20002;-64
2022/10/31 01:29:23;;;;;;;40.92;20.52;;;;;;;15.35;56.85;102088.03;7396211;19;20033;-64
2022/10/31 01:31:49;;;;;;;33.58;20.10;;;;;;;15.34;56.62;102086.41;7396700;19;20005;-64
2022/10/31 01:34:17;;;;;;;35.75;19.75;;;;;;;15.37;56.73;102093.97;7397286;19;20327;-64
2022/10/31 01:36:44;;;;;;;34.25;20.52;;;;;;;15.34;56.61;102084.44;7395995;19;20373;-63
2022/10/31 01:39:12;;;;;;;40.40;20.65;;;;;;;15.33;56.67;102091.13;7389715;19;20439;-63
2022/10/31 01:41:41;;;;;;;34.80;19.33;;;;;;;15.30;56.55;102088.25;7395992;19;20002;-64
2022/10/31 01:44:15;;;;;;;36.92;19.67;;;;;;;15.33;56.61;102085.63;7394987;19;20010;-63
2022/10/31 01:46:58;;;;;;;39.17;21.80;;;;;;;15.31;56.67;102087.09;7397376;19;20006;-64
2022/10/31 01:49:37;;;;;;;41.67;22.48;;;;;;;15.23;56.79;102088.00;7396181;19;20002;-63
2022/10/31 01:52:03;;;;;;;37.05;20.08;;;;;;;15.23;56.60;102091.56;7397008;19;20062;-64
2022/10/31 01:54:35;;;;;;;34.05;20.25;;;;;;;15.18;56.75;102092.59;7390895;19;20003;-67
2022/10/31 01:57:04;;;;;;;38.28;21.05;;;;;;;15.22;56.37;102095.47;7395233;19;20010;-67
2022/10/31 01:59:35;;;;;;;33.95;20.30;;;;;;;15.18;56.38;102092.59;7392032;19;20026;-67
2022/10/31 02:02:01;;;;;;;35.70;19.95;;;;;;;15.15;56.38;102085.03;7397622;19;20006;-67
2022/10/31 02:04:27;;;;;;;34.75;19.40;;;;;;;15.10;56.52;102095.44;7394148;19;20485;-67
2022/10/31 02:07:02;;;;;;;33.50;18.08;;;;;;;15.07;56.64;102096.91;7396138;19;20002;-67
2022/10/31 02:09:29;;;;;;;36.72;18.75;;;;;;;15.09;56.40;102091.88;7395643;19;19987;-67
2022/10/31 02:11:59;;;;;;;34.15;18.85;;;;;;;15.13;56.21;102086.50;7395682;19;20026;-67
2022/10/31 02:14:27;;;;;;;30.77;18.15;;;;;;;14.98;56.74;102099.78;7396626;19;20451;-66
2022/10/31 02:16:53;;;;;;;35.65;20.15;;;;;;;14.97;56.88;102100.09;7394952;19;20070;-66
2022/10/31 02:19:33;;;;;;;33.30;18.90;;;;;;;14.90;56.97;102097.13;7390434;19;20006;-66
2022/10/31 02:22:09;;;;;;;33.90;19.73;;;;;;;14.84;56.89;102101.22;7395611;19;20482;-66
2022/10/31 02:25:30;;;;;;;36.25;20.63;;;;;;;14.92;56.77;102111.31;7391746;19;20003;-67
2022/10/31 02:28:15;;;;;;;35.05;19.13;;;;;;;14.92;56.80;102103.06;7390898;19;20517;-67
2022/10/31 02:31:18;;;;;;;36.17;19.52;;;;;;;14.92;56.32;102100.31;7396636;19;20002;-67
2022/10/31 02:33:50;;;;;;;33.33;18.85;;;;;;;14.94;56.36;102103.53;7395685;19;20026;-68
2022/10/31 02:36:26;;;;;;;35.47;20.10;;;;;;;14.87;56.65;102101.34;7395567;19;20006;-66
2022/10/31 02:39:06;;;;;;;41.90;21.48;;;;;;;14.79;56.90;102103.03;7390234;19;20017;-68
2022/10/31 02:41:52;;;;;;;33.35;18.95;;;;;;;14.70;57.00;102105.03;7393606;19;20026;-67
2022/10/31 02:44:26;;;;;;;38.55;20.02;;;;;;;14.65;57.00;102108.00;7393509;19;19994;-66
2022/10/31 02:46:59;;;;;;;34.55;19.90;;;;;;;14.69;56.59;102106.16;7396201;19;20013;-66
2022/10/31 02:49:35;;;;;;;33.38;20.27;;;;;;;14.73;56.75;102107.13;7393843;19;20003;-65
2022/10/31 02:52:00;;;;;;;37.65;20.52;;;;;;;14.75;56.67;102104.84;7395649;19;20002;-65
2022/10/31 02:54:28;;;;;;;37.88;19.73;;;;;;;14.70;56.42;102109.75;7393279;19;20014;-66
2022/10/31 02:56:59;;;;;;;33.75;19.33;;;;;;;14.61;56.76;102112.53;7395522;19;20036;-67
2022/10/31 02:59:36;;;;;;;35.88;19.95;;;;;;;14.52;56.98;102111.84;7391514;19;20006;-67
2022/10/31 03:02:07;;;;;;;32.00;18.75;;;;;;;14.55;56.97;102113.91;7395772;19;20061;-66
2022/10/31 03:04:47;;;;;;;34.63;19.95;;;;;;;14.51;57.09;102111.03;7392276;19;20006;-66
2022/10/31 03:07:21;;;;;;;34.50;20.38;;;;;;;14.46;57.10;102104.94;7393252;19;19999;-65
2022/10/31 03:09:53;;;;;;;;;;;;;;;14.48;56.81;102114.47;7394077;19;20002;-65
2022/10/31 03:12:28;;;;;;;32.03;18.88;;;;;;;14.55;56.76;102113.91;7394834;19;19927;-65
2022/10/31 03:15:20;;;;;;;35.88;20.92;;;;;;;14.51;56.77;102112.97;7394317;19;19998;-65
2022/10/31 03:17:53;;;;;;;35.88;19.45;;;;;;;14.54;56.79;102124.09;7390560;19;20511;-66
2022/10/31 03:20:26;;;;;;;35.67;21.00;;;;;;;14.59;56.73;102126.63;7388806;19;20015;-65
2022/10/31 03:22:54;;;;;;;38.65;21.45;;;;;;;14.59;56.56;102128.56;7394536;19;20010;-65
2022/10/31 03:25:20;;;;;;;33.60;20.30;;;;;;;14.65;56.72;102129.97;7394035;19;20430;-65
2022/10/31 03:27:47;;;;;;;36.03;21.83;;;;;;;14.68;56.21;102134.81;7393531;19;19995;-65
2022/10/31 03:30:14;;;;;;;37.35;19.92;;;;;;;14.68;56.40;102129.31;7391868;19;19998;-65
2022/10/31 03:32:48;;;;;;;36.97;20.65;;;;;;;14.65;56.48;102131.94;7394412;19;20090;-66
2022/10/31 03:35:18;;;;;;;38.00;21.83;;;;;;;14.65;56.36;102129.97;7393426;19;20002;-65
2022/10/31 03:37:46;;;;;;;38.63;22.10;;;;;;;14.59;56.65;102137.59;7388532;19;20540;-66
2022/10/31 03:40:14;;;;;;;34.47;21.00;;;;;;;14.56;56.73;102137.47;7388399;19;20016;-67
2022/10/31 03:42:44;;;;;;;34.55;20.27;;;;;;;14.57;56.73;102139.09;7393566;19;19994;-67
2022/10/31 03:45:18;;;;;;;34.22;21.00;;;;;;;14.58;56.70;102136.03;7394009;19;20003;-65
2022/10/31 03:47:44;;;;;;;37.95;20.45;;;;;;;14.50;56.60;102155.31;7390664;19;20014;-67
2022/10/31 03:50:12;;;;;;;40.88;21.67;;;;;;;14.48;56.85;102146.59;7395264;19;19995;-66
2022/10/31 03:52:47;;;;;;;39.97;22.02;;;;;;;14.51;56.79;102151.44;7392129;19;20474;-66
2022/10/31 03:55:18;;;;;;;38.22;24.30;;;;;;;14.50;56.60;102155.31;7392376;19;20393;-65
2022/10/31 03:58:02;;;;;;;38.38;20.85;;;;;;;14.50;56.72;102149.84;7395943;19;20010;-67
2022/10/31 04:00:30;;;;;;;35.65;19.65;;;;;;;14.52;56.39;102153.84;7390936;19;20006;-67
2022/10/31 04:03:14;;;;;;;36.90;20.13;;;;;;;14.38;56.81;102162.34;7391778;19;20007;-67
2022/10/31 04:05:42;;;;;;;38.83;21.83;;;;;;;14.36;56.72;102155.56;7393438;19;20009;-67
2022/10/31 04:08:31;;;;;;;33.92;21.15;;;;;;;14.41;56.63;102158.94;7390073;19;20406;-65
2022/10/31 04:10:59;;;;;;;39.78;21.88;;;;;;;14.37;56.53;102151.69;7397052;19;20045;-65
2022/10/31 04:13:31;;;;;;;36.22;21.65;;;;;;;14.39;56.70;102155.72;7394061;19;19999;-67
2022/10/31 04:15:57;;;;;;;34.13;19.95;;;;;;;14.36;56.45;102152.84;7391320;19;20014;-66
2022/10/31 04:18:23;;;;;;;35.35;21.73;;;;;;;14.24;57.08;102156.31;7389443;19;20007;-65
2022/10/31 04:20:58;;;;;;;37.25;20.73;;;;;;;14.21;56.81;102159.72;7392610;19;20024;-66
2022/10/31 04:23:26;;;;;;;39.50;21.67;;;;;;;14.10;57.19;102158.53;7390693;19;19998;-67
2022/10/31 04:25:51;;;;;;;36.25;21.83;;;;;;;14.17;56.97;102161.53;7391380;19;20493;-66
2022/10/31 04:28:17;;;;;;;49.20;23.88;;;;;;;14.35;56.64;102171.25;7388293;19;20074;-66
2022/10/31 04:30:47;;;;;;;52.25;25.35;;;;;;;14.42;56.54;102176.22;7391424;19;20011;-69
2022/10/31 04:33:14;;;;;;;42.42;22.83;;;;;;;14.37;56.58;102168.97;7393888;19;20027;-67
2022/10/31 04:35:39;;;;;;;48.90;24.58;;;;;;;14.40;56.62;102165.56;7391607;19;20292;-67
2022/10/31 04:38:07;;;;;;;53.05;26.50;;;;;;;14.38;57.02;102173.34;7390099;19;19990;-68
2022/10/31 04:40:37;;;;;;;64.90;24.90;;;;;;;14.27;57.16;102169.38;7391575;19;20005;-69
2022/10/31 04:43:04;;;;;;;51.90;24.88;;;;;;;14.29;57.33;102172.59;7389463;19;20002;-66
2022/10/31 04:45:30;;;;;;;87.78;25.80;;;;;;;14.31;57.23;102181.31;7389243;19;19999;-66
2022/10/31 04:48:00;;;;;;;64.32;24.35;;;;;;;14.23;56.96;102171.19;7390240;19;20006;-67
2022/10/31 04:50:28;;;;;;;45.75;23.17;;;;;;;14.23;57.34;102173.94;7391048;19;20024;-66
2022/10/31 04:52:53;;;;;;;75.85;24.63;;;;;;;14.27;57.13;102174.88;7391902;19;20003;-66
2022/10/31 04:55:19;;;;;;;59.45;23.85;;;;;;;14.22;57.35;102172.31;7389807;19;20066;-67
2022/10/31 04:57:48;;;;;;;44.80;22.88;;;;;;;14.20;57.34;102177.34;7389203;19;19999;-67
2022/10/31 05:00:16;;;;;;;68.80;22.83;;;;;;;14.22;57.21;102172.31;7388285;19;20015;-67
2022/10/31 05:02:46;;;;;;;51.63;24.67;;;;;;;14.21;57.36;102179.75;7389959;19;20804;-66
2022/10/31 05:05:17;;;;;;;58.40;23.52;;;;;;;14.21;57.02;102171.53;7389515;19;20016;-66
2022/10/31 05:07:44;;;;;;;49.60;23.58;;;;;;;14.29;56.97;102175.34;7390139;19;20010;-66
2022/10/31 05:10:13;;;;;;;44.92;21.25;;;;;;;14.22;56.85;102175.06;7389360;19;19995;-66
2022/10/31 05:12:55;;;;;;;52.58;22.75;;;;;;;14.12;57.38;102178.19;7390228;19;20026;-66
2022/10/31 05:15:23;;;;;;;83.78;24.67;;;;;;;14.16;57.40;102166.22;7391324;19;20023;-66
2022/10/31 05:17:49;;;;;;;53.92;21.85;;;;;;;14.10;57.29;102164.81;7386632;19;20021;-65
2022/10/31 05:20:17;;;;;;;50.33;22.45;;;;;;;14.02;57.45;102160.97;7388439;19;20423;-64
2022/10/31 05:22:51;;;;;;;49.55;23.35;;;;;;;14.07;57.61;102155.28;7389375;19;20018;-67
2022/10/31 05:25:17;;;;;;;;;;;;;;;14.02;57.19;102155.47;7391449;19;20470;-67
2022/10/31 05:27:46;;;;;;;48.65;21.02;;;;;;;14.02;57.41;102157.41;7389974;19;20328;-67
2022/10/31 05:30:13;;;;;;;40.17;21.70;;;;;;;14.06;57.08;102159.19;7388899;19;19998;-66
2022/10/31 05:32:47;;;;;;;47.70;21.13;;;;;;;14.02;57.00;102163.72;7390054;19;20011;-65
2022/10/31 05:35:18;;;;;;;42.55;21.70;;;;;;;14.01;56.95;102167.59;7390580;19;20007;-66
2022/10/31 05:37:44;;;;;;;52.08;20.27;;;;;;;13.84;57.63;102162.19;7389482;19;20010;-67
2022/10/31 05:40:12;;;;;;;55.55;22.58;;;;;;;13.79;57.58;102168.63;7388459;19;20003;-68
2022/10/31 05:42:40;;;;;;;55.95;22.10;;;;;;;13.78;57.71;102156.06;7389958;19;21954;-67
2022/10/31 05:45:16;;;;;;;38.83;21.40;;;;;;;13.68;58.00;102165.47;7387879;19;20115;-67
2022/10/31 05:47:42;;;;;;;39.28;21.13;;;;;;;13.79;57.52;102159.63;7389498;19;20338;-67
2022/10/31 05:50:09;;;;;;;40.60;20.05;;;;;;;13.82;57.26;102159.75;7387814;19;20062;-67
2022/10/31 05:52:35;;;;;;;44.70;22.25;;;;;;;13.78;57.25;102158.03;7387694;19;20002;-67
2022/10/31 05:55:01;;;;;;;49.22;21.00;;;;;;;13.85;57.19;102163.81;7387493;19;20006;-67
2022/10/31 05:57:28;;;;;;;36.88;20.98;;;;;;;13.82;57.18;102169.94;7389885;19;20027;-67
2022/10/31 05:59:54;;;;;;;35.85;20.70;;;;;;;13.84;57.23;102167.69;7390103;19;20017;-67
2022/10/31 06:02:20;;;;;;;41.92;21.85;;;;;;;13.88;57.09;102165.91;7394947;19;19995;-67
2022/10/31 06:04:46;;;;;;;54.35;22.70;;;;;;;13.70;57.11;102171.44;7394514;19;20030;-67
2022/10/31 06:07:11;;;;;;;40.38;23.23;;;;;;;13.63;57.66;102173.09;7396798;19;20435;-66
2022/10/31 06:09:37;;;;;;;41.40;21.38;;;;;;;13.67;57.37;102176.78;7395234;19;20003;-66
2022/10/31 06:12:03;;;;;;;45.08;20.88;;;;;;;13.69;57.23;102180.81;7395590;19;19999;-68
2022/10/31 06:14:28;;;;;;;35.72;19.27;;;;;;;13.62;57.32;102172.25;7396870;19;19991;-66
2022/10/31 06:16:55;;;;;;;43.90;21.15;;;;;;;13.46;57.57;102185.72;7396021;19;20058;-67
2022/10/31 06:19:21;;;;;;;39.28;20.83;;;;;;;13.63;57.22;102186.81;7392269;19;20003;-67
2022/10/31 06:21:46;;;;;;;33.40;18.80;;;;;;;13.60;57.13;102193.75;7395243;19;20490;-68
2022/10/31 06:24:14;;;;;;;28.02;18.77;;;;;;;13.48;57.17;102188.16;7392392;19;20022;-69
2022/10/31 06:26:41;;;;;;;31.10;18.75;;;;;;;13.53;57.20;102190.72;7396209;19;20006;-69
2022/10/31 06:29:06;;;;;;;30.50;17.05;;;;;;;13.50;57.17;102194.09;7391099;19;20086;-67
2022/10/31 06:31:32;;;;;;;32.55;19.08;;;;;;;13.35;57.27;102198.19;7395818;19;19994;-68
2022/10/31 06:33:57;;;;;;;28.38;18.02;;;;;;;13.29;57.71;102203.03;7395407;19;20009;-68
2022/10/31 06:36:24;;;;;;;31.45;19.38;;;;;;;13.36;57.49;102201.72;7395901;19;19999;-67
2022/10/31 06:38:52;;;;;;;30.48;19.40;;;;;;;13.39;57.03;102204.59;7392273;19;20019;-68
2022/10/31 06:41:18;;;;;;;28.00;18.17;;;;;;;13.49;56.93;102206.19;7396118;19;20011;-67
2022/10/31 06:43:47;;;;;;;28.20;17.95;;;;;;;13.42;56.79;102211.38;7394796;19;20785;-68
2022/10/31 06:46:12;;;;;;;36.25;21.80;;;;;;;13.41;56.92;102216.06;7395968;19;19998;-68
2022/10/31 06:48:39;;;;;;;33.95;20.30;;;;;;;13.55;56.63;102207.63;7389496;19;20451;-68
2022/10/31 06:51:05;;;;;;;42.35;18.52;;;;;;;13.55;56.38;102210.38;7395787;19;20013;-68
2022/10/31 06:53:30;;;;;;;53.10;21.13;;;;;;;13.61;56.48;102213.75;7395494;19;19999;-67
2022/10/31 06:55:56;;;;;;;27.63;18.40;;;;;;;13.52;56.66;102216.53;7395978;19;20065;-69
2022/10/31 06:58:22;;;;;;;27.60;18.13;;;;;;;13.59;56.21;102211.31;7391482;19;20006;-67
2022/10/31 07:00:48;;;;;;;33.85;21.48;;;;;;;13.65;56.04;102206.47;7392973;19;20014;-68
2022/10/31 07:03:18;;;;;;;31.05;19.63;;;;;;;13.68;55.82;102208.56;7394029;19;20069;-67
2022/10/31 07:05:43;;;;;;;33.80;19.98;;;;;;;13.76;55.69;102206.91;7393268;19;20010;-68
2022/10/31 07:08:11;;;;;;;44.72;21.10;;;;;;;13.48;56.28;102215.56;7390118;19;20002;-67
2022/10/31 07:10:38;;;;;;;42.92;21.25;;;;;;;13.40;56.50;102230.91;7392319;19;20007;-67
2022/10/31 07:13:13;;;;;;;81.55;23.00;;;;;;;13.36;56.97;102237.38;7392666;19;20080;-67
2022/10/31 07:15:41;;;;;;;41.78;21.75;;;;;;;13.43;56.93;102234.94;7394141;19;20074;-68
2022/10/31 07:18:09;;;;;;;42.33;18.98;;;;;;;13.43;56.86;102238.50;7385394;19;20352;-67
2022/10/31 07:20:35;;;;;;;57.20;19.73;;;;;;;13.41;57.00;102239.94;7394343;19;20432;-67
2022/10/31 07:23:06;;;;;;;83.40;22.60;;;;;;;13.49;56.82;102242.69;7392125;19;20023;-68
2022/10/31 07:25:31;;;;;;;55.03;19.17;;;;;;;13.56;56.44;102247.66;7393395;19;19991;-68
2022/10/31 07:27:57;;;;;;;27.50;15.98;;;;;;;13.68;56.17;102241.50;7392407;19;20009;-68
2022/10/31 07:30:23;;;;;;;32.85;17.25;;;;;;;13.65;55.95;102242.94;7393351;19;19995;-68
2022/10/31 07:32:49;;;;;;;47.17;17.80;;;;;;;13.49;56.56;102239.13;7393877;19;20062;-69
2022/10/31 07:35:26;;;;;;;46.95;17.83;;;;;;;13.50;56.46;102236.03;7393901;19;19995;-68
2022/10/31 07:37:52;;;;;;;56.53;17.70;;;;;;;13.54;56.54;102235.41;7393114;19;19994;-68
2022/10/31 07:40:19;;;;;;;43.80;17.05;;;;;;;13.44;56.63;102231.06;7392510;19;19997;-68
2022/10/31 07:42:47;;;;;;;71.85;20.33;;;;;;;13.56;56.63;102238.63;7391646;19;20004;-68
2022/10/31 07:45:15;;;;;;;27.48;16.17;;;;;;;13.54;56.35;102235.41;7392343;19;19990;-68
2022/10/31 07:47:51;;;;;;;43.33;17.08;;;;;;;13.56;56.73;102231.22;7393280;19;20451;-68
2022/10/31 07:50:25;;;;;;;41.92;15.13;;;;;;;13.52;56.49;102235.72;7392976;19;20070;-67
2022/10/31 07:53:17;;;;;;;48.88;16.27;;;;;;;13.45;56.63;102229.94;7391209;19;20070;-67
2022/10/31 07:55:43;;;;;;;34.78;16.30;;;;;;;13.46;56.75;102224.13;7393177;19;20014;-66
2022/10/31 07:58:14;;;;;;;31.83;15.85;;;;;;;13.57;56.67;102230.06;7392458;19;20007;-66
2022/10/31 08:00:47;;;;;;;26.13;14.68;;;;;;;13.63;56.19;102230.72;7397726;19;19995;-67
2022/10/31 08:03:16;;;;;;;31.08;14.95;;;;;;;13.51;56.40;102226.69;7391013;19;19998;-67
2022/10/31 08:05:42;;;;;;;42.28;15.50;;;;;;;13.48;56.22;102227.34;7392924;19;20003;-67
2022/10/31 08:08:08;;;;;;;38.10;15.13;;;;;;;13.37;56.52;102236.25;7389136;19;20002;-67
2022/10/31 08:10:36;;;;;;;25.90;14.15;;;;;;;13.35;56.76;102235.78;7391214;19;20002;-67
2022/10/31 08:13:07;;;;;;;31.35;14.63;;;;;;;13.50;56.57;102238.00;7390165;19;20015;-66
2022/10/31 08:15:37;;;;;;;22.85;15.88;;;;;;;13.57;56.29;102235.53;7397001;19;20006;-66
2022/10/31 08:18:03;;;;;;;24.13;15.60;;;;;;;13.71;56.32;102235.38;7387720;19;20017;-66
2022/10/31 08:20:28;;;;;;;29.98;17.40;;;;;;;13.76;55.91;102235.19;7393841;19;20312;-66
2022/10/31 08:22:55;;;;;;;25.30;16.65;;;;;;;13.74;56.28;102234.69;7392056;19;19998;-65
2022/10/31 08:25:21;;;;;;;22.08;15.95;;;;;;;13.79;56.18;102230.97;7392596;19;20002;-66
2022/10/31 08:27:51;;;;;;;22.45;15.85;;;;;;;13.84;56.15;102219.81;7390179;19;20006;-66
2022/10/31 08:30:19;;;;;;;22.80;14.85;;;;;;;13.99;55.62;102219.28;7388452;19;19999;-66
2022/10/31 08:32:44;;;;;;;20.40;15.20;;;;;;;14.11;55.24;102209.53;7391629;19;20459;-66
2022/10/31 08:35:11;;;;;;;23.55;16.10;;;;;;;14.05;55.35;102217.16;7391537;19;19999;-62
2022/10/31 08:37:37;;;;;;;21.92;16.35;;;;;;;14.07;55.39;102223.91;7391990;19;20015;-60
2022/10/31 08:40:03;;;;;;;22.33;15.48;;;;;;;14.10;55.62;102224.41;7389734;19;20370;-60
2022/10/31 08:42:29;;;;;;;23.33;16.52;;;;;;;14.13;55.35;102230.03;7393007;19;20002;-60
2022/10/31 08:44:54;;;;;;;24.48;16.85;;;;;;;14.08;55.41;102224.75;7393216;19;20017;-60
2022/10/31 08:47:20;;;;;;;23.20;16.13;;;;;;;14.07;55.55;102221.16;7392618;19;20002;-61
2022/10/31 08:49:45;;;;;;;22.40;15.25;;;;;;;14.11;55.35;102220.50;7392076;19;20475;-61
2022/10/31 08:52:11;;;;;;;22.10;15.05;;;;;;;14.15;55.17;102226.97;7394105;19;20338;-60
2022/10/31 08:54:36;;;;;;;21.42;14.52;;;;;;;14.22;55.22;102216.25;7393472;19;20035;-60
2022/10/31 08:57:02;;;;;;;22.83;15.82;;;;;;;14.26;54.92;102225.44;7393773;19;20070;-60
2022/10/31 08:59:28;;;;;;;24.05;16.38;;;;;;;14.23;54.92;102229.66;7392642;19;20027;-60
2022/10/31 09:01:54;;;;;;;25.15;16.60;;;;;;;14.25;55.10;102221.09;7394529;19;20095;-60
2022/10/31 09:04:19;;;;;;;25.95;17.50;;;;;;;14.20;55.45;102221.28;7388885;19;20309;-60
2022/10/31 09:06:45;;;;;;;25.65;16.90;;;;;;;14.32;55.50;102210.38;7390272;19;19999;-60
2022/10/31 09:09:10;;;;;;;29.38;17.83;;;;;;;14.43;55.09;102221.78;7388379;19;20007;-60
2022/10/31 09:11:36;;;;;;;26.50;17.70;;;;;;;14.54;54.89;102222.19;7389642;19;19990;-60
2022/10/31 09:14:01;;;;;;;24.83;17.05;;;;;;;14.42;55.15;102220.97;7391101;19;19995;-60
2022/10/31 09:16:27;;;;;;;25.48;17.90;;;;;;;14.30;55.58;102215.41;7390039;19;20467;-61
2022/10/31 09:18:52;;;;;;;25.33;17.95;;;;;;;14.27;55.46;102218.81;7386809;19;20011;-61
2022/10/31 09:21:18;;;;;;;28.20;19.52;;;;;;;14.23;55.57;102210.44;7390386;19;20005;-62
2022/10/31 09:23:44;;;;;;;27.95;18.15;;;;;;;14.19;55.57;102214.16;7387926;19;19987;-61
2022/10/31 09:26:09;;;;;;;28.13;18.70;;;;;;;14.26;55.68;102211.69;7390465;19;19994;-61
2022/10/31 09:28:35;;;;;;;26.33;18.42;;;;;;;14.25;55.70;102218.34;7385654;19;20009;-62
2022/10/31 09:31:00;;;;;;;27.15;18.50;;;;;;;14.26;55.83;102211.69;7390279;19;20085;-63
2022/10/31 09:33:26;;;;;;;30.77;20.27;;;;;;;14.19;55.79;102201.25;7390935;19;20014;-62
2022/10/31 09:35:52;;;;;;;30.45;20.40;;;;;;;14.33;55.73;102211.16;7397094;19;20032;-62
2022/10/31 09:38:20;;;;;;;33.13;21.15;;;;;;;14.57;55.60;102210.53;7395149;19;19998;-62
2022/10/31 09:41:06;;;;;;;30.23;20.65;;;;;;;14.69;55.50;102212.53;7397023;19;20019;-62
2022/10/31 09:44:11;;;;;;;31.70;20.63;;;;;;;14.74;55.51;102207.63;7395992;19;20006;-63
2022/10/31 09:46:56;;;;;;;30.30;21.00;;;;;;;15.01;55.20;102201.94;7397710;19;20025;-63
2022/10/31 09:49:56;;;;;;;32.05;21.88;;;;;;;15.10;55.16;102206.22;7391841;19;20622;-63
2022/10/31 09:52:34;;;;;;;32.45;22.17;;;;;;;15.10;54.99;102194.44;7398548;19;20002;-63
2022/10/31 09:55:17;;;;;;;38.03;23.33;;;;;;;15.13;54.91;102194.56;7398005;19;19991;-63
2022/10/31 09:57:43;;;;;;;40.75;24.83;;;;;;;15.26;55.01;102195.38;7395211;19;19995;-62
2022/10/31 10:00:18;;;;;;;36.88;23.27;;;;;;;15.35;55.13;102200.81;7396600;19;20003;-61
2022/10/31 10:02:50;;;;;;;38.28;23.38;;;;;;;15.39;55.15;102196.22;7395563;19;20020;-62
2022/10/31 10:05:59;;;;;;;38.78;24.95;;;;;;;15.28;55.76;102201.38;7396666;19;20002;-61
2022/10/31 10:08:27;;;;;;;40.65;26.73;;;;;;;15.25;55.68;102195.75;7393359;19;20471;-62
2022/10/31 10:11:05;;;;;;;40.80;26.58;;;;;;;15.32;55.75;102196.00;7395466;19;20477;-62
2022/10/31 10:13:57;;;;;;;39.22;25.65;;;;;;;15.34;55.83;102193.69;7395868;19;20008;-61
2022/10/31 10:16:33;;;;;;;40.33;25.92;;;;;;;15.27;55.91;102193.47;7394767;19;19995;-61
2022/10/31 10:19:35;;;;;;;40.15;25.60;;;;;;;15.18;55.98;102201.81;7392014;19;20035;-62
2022/10/31 10:22:22;;;;;;;37.15;25.40;;;;;;;15.26;55.85;102200.88;7396193;19;20006;-62
2022/10/31 10:25:11;;;;;;;37.65;24.65;;;;;;;15.43;55.44;102201.84;7393470;19;20023;-62
2022/10/31 10:27:48;;;;;;;38.95;25.02;;;;;;;15.49;55.18;102201.28;7395874;19;20320;-62
2022/10/31 10:30:18;;;;;;;37.72;24.25;;;;;;;15.58;55.30;102208.63;7395641;19;20497;-62
2022/10/31 10:32:49;;;;;;;38.42;25.02;;;;;;;15.59;55.57;102210.25;7395930;19;19999;-62
2022/10/31 10:35:31;;;;;;;37.28;25.08;;;;;;;15.68;55.08;102199.97;7395730;19;20017;-62
2022/10/31 10:38:33;;;;;;;37.17;24.50;;;;;;;15.65;55.13;102197.91;7394591;19;20139;-61
2022/10/31 10:41:04;;;;;;;37.78;24.50;;;;;;;15.49;55.58;102195.78;7395751;19;20006;-62
2022/10/31 10:43:35;;;;;;;40.67;26.20;;;;;;;15.63;55.65;102194.69;7395083;19;20058;-61
2022/10/31 10:49:30;;;;;;;38.80;24.45;;;;;;;15.67;55.33;102190.13;7390127;19;20019;-62
2022/10/31 10:52:19;;;;;;;39.40;25.55;;;;;;;15.68;55.40;102189.78;7394514;19;20025;-61
2022/10/31 10:55:03;;;;;;;35.03;23.83;;;;;;;15.79;55.43;102192.88;7393044;19;20066;-61
2022/10/31 10:57:46;;;;;;;37.53;24.35;;;;;;;15.80;55.36;102188.16;7395221;19;20013;-61
2022/10/31 11:00:24;;;;;;;38.33;24.45;;;;;;;15.78;55.63;102185.78;7393566;19;20471;-61
2022/10/31 11:02:50;;;;;;;39.45;24.95;;;;;;;15.85;55.44;102183.25;7395311;19;20030;-61
2022/10/31 11:05:37;;;;;;;44.33;26.77;;;;;;;15.94;55.19;102177.59;7393799;19;19998;-61
2022/10/31 11:08:04;;;;;;;38.53;25.42;;;;;;;16.01;55.00;102171.53;7393664;19;20062;-61
2022/10/31 11:10:30;;;;;;;44.90;27.15;;;;;;;15.95;55.05;102172.91;7394546;19;20006;-61
2022/10/31 11:13:13;;;;;;;43.60;26.20;;;;;;;15.85;55.54;102176.94;7392805;19;20456;-61
2022/10/31 11:15:50;;;;;;;43.55;27.50;;;;;;;15.77;55.65;102166.84;7395188;19;19998;-62
2022/10/31 11:18:25;;;;;;;39.78;24.35;;;;;;;15.78;55.72;102180.25;7389296;19;19999;-61
2022/10/31 11:20:54;;;;;;;39.10;24.25;;;;;;;15.84;55.61;102178.88;7394589;19;20492;-61
2022/10/31 11:23:23;;;;;;;42.53;25.58;;;;;;;15.85;55.94;102180.50;7392622;19;20002;-61
2022/10/31 11:26:05;;;;;;;39.58;25.10;;;;;;;15.92;55.49;102169.69;7393536;19;20472;-62
2022/10/31 11:28:34;;;;;;;43.05;25.05;;;;;;;15.97;55.26;102174.16;7387282;19;20094;-63